Anthony, Texas
Current Conditions -  °F | °C
As of 3:58 PM on Friday 28 Nov 2014 (Local Time) from KBIF Reporting Station
Clear Clear  
Wind Chill: 20°   Ceiling: Unl
Heat Index: 20°   Visibility: 9mi
Dew Point: -9°   Wind: 6mph
Humidity: 14%   Direction: 180°S
Pressure: 30.09"   Gusts: NA
Location:  32°N, 106.61°W
Report Text: KBIF 282258Z AUTO 18005KT 9SM CLR 20/M08 A3009 RMK AO2 SLP164 T01961085 $
Loading
Personal Weather Stations






























Interactive Weather Map New forecast layout! Learn more

10-Day Weather Forecast

Advertisements
Track Severe Weather on mobile